ADDS METAR Data INFO
IDs: Format: Raw Decoded Include TAF

Data at: 0122 UTC 20 Feb 2018

KCLL 200053Z 15017G24KT 10SM SCT060 22/19 A2988 RMK AO2 SLP116 T02220189